createdAt,value
2023-03-07T00:01:34.630Z,6.15
2023-03-07T00:05:37.806Z,6.40
2023-03-07T00:09:40.801Z,6.75
2023-03-07T00:13:45.444Z,5.72
2023-03-07T00:17:48.434Z,6.22
2023-03-07T00:21:51.540Z,6.28
2023-03-07T00:26:02.124Z,6.82
2023-03-07T00:30:07.689Z,6.70
2023-03-07T00:34:10.654Z,7.72
2023-03-07T00:38:13.752Z,6.05
2023-03-07T00:42:17.413Z,5.57
2023-03-07T00:46:24.498Z,6.63
2023-03-07T00:50:27.481Z,6.32
2023-03-07T00:54:30.903Z,7.35
2023-03-07T00:58:36.104Z,7.43
2023-03-07T01:02:40.820Z,7.18
2023-03-07T01:06:43.833Z,6.95
2023-03-07T01:10:48.678Z,6.72
2023-03-07T01:14:52.566Z,7.05
2023-03-07T01:18:58.820Z,7.00
2023-03-07T01:23:03.894Z,6.80
2023-03-07T01:27:07.755Z,6.80
2023-03-07T01:31:10.837Z,6.90
2023-03-07T01:35:16.834Z,7.63
2023-03-07T01:39:19.816Z,6.57
2023-03-07T01:43:35.289Z,7.43
2023-03-07T01:47:43.612Z,7.10
2023-03-07T01:51:52.260Z,6.95
2023-03-07T01:55:55.350Z,7.45
2023-03-07T02:00:05.769Z,6.60
2023-03-07T02:04:22.523Z,7.40
2023-03-07T02:12:48.165Z,6.95
2023-03-07T02:16:52.258Z,7.65
2023-03-07T02:21:01.719Z,7.40
2023-03-07T02:25:13.493Z,6.78
2023-03-07T02:29:18.065Z,6.60
2023-03-07T02:33:25.126Z,6.80
2023-03-07T02:37:38.219Z,7.30
2023-03-07T02:41:42.123Z,6.47
2023-03-07T02:45:55.729Z,6.45
2023-03-07T02:49:58.937Z,6.55
2023-03-07T02:54:02.734Z,5.55
2023-03-07T02:58:06.159Z,6.80
2023-03-07T03:02:10.592Z,7.55
2023-03-07T03:06:13.914Z,7.00
2023-03-07T03:10:17.259Z,6.60
2023-03-07T03:14:20.600Z,6.38
2023-03-07T03:18:25.489Z,6.20
2023-03-07T03:22:28.755Z,6.75
2023-03-07T03:26:31.988Z,6.82
2023-03-07T03:30:36.101Z,6.95
2023-03-07T03:34:41.910Z,6.07
2023-03-07T03:38:45.334Z,6.38
2023-03-07T03:42:48.433Z,6.80
2023-03-07T03:46:55.857Z,6.32
2023-03-07T03:51:06.120Z,6.15
2023-03-07T03:55:10.384Z,6.63
2023-03-07T03:59:13.474Z,6.03
2023-03-07T04:03:16.631Z,7.03
2023-03-07T04:07:22.223Z,7.35
2023-03-07T04:11:26.938Z,6.80
2023-03-07T04:15:30.145Z,6.78
2023-03-07T04:19:33.404Z,6.65
2023-03-07T04:23:38.457Z,6.45
2023-03-07T04:27:41.783Z,6.80
2023-03-07T04:31:45.029Z,6.78
2023-03-07T04:35:48.685Z,6.43
2023-03-07T04:39:53.180Z,7.05
2023-03-07T04:43:57.057Z,6.53
2023-03-07T04:48:01.351Z,6.35
2023-03-07T04:52:05.584Z,7.57
2023-03-07T04:56:11.549Z,6.72
2023-03-07T05:00:17.107Z,6.28
2023-03-07T05:04:20.709Z,5.60
2023-03-07T05:08:24.345Z,6.57
2023-03-07T05:12:29.216Z,5.75
2023-03-07T05:16:33.653Z,6.72
2023-03-07T05:20:36.866Z,5.82
2023-03-07T05:24:40.112Z,6.65
2023-03-07T05:28:44.736Z,6.57
2023-03-07T05:32:47.910Z,6.78
2023-03-07T05:36:51.802Z,7.45
2023-03-07T05:40:55.299Z,7.50
2023-03-07T05:44:59.798Z,6.95
2023-03-07T05:49:03.063Z,7.07
2023-03-07T05:53:06.535Z,7.03
2023-03-07T05:57:10.168Z,6.63
2023-03-07T06:01:14.894Z,7.05
2023-03-07T06:05:18.196Z,7.00
2023-03-07T06:09:22.356Z,7.15
2023-03-07T06:13:26.693Z,7.00
2023-03-07T06:17:31.160Z,6.90
2023-03-07T06:21:34.736Z,7.65
2023-03-07T06:25:38.329Z,6.50
2023-03-07T06:29:41.613Z,6.22
2023-03-07T06:33:47.669Z,6.47
2023-03-07T06:37:52.376Z,5.97
2023-03-07T06:41:55.494Z,6.05
2023-03-07T06:45:58.718Z,6.38
2023-03-07T06:50:09.103Z,6.55
2023-03-07T06:54:13.401Z,6.25
2023-03-07T06:58:16.902Z,5.82
2023-03-07T07:02:20.467Z,5.97
2023-03-07T07:06:25.405Z,5.70
2023-03-07T07:10:28.848Z,5.80
2023-03-07T07:14:32.394Z,6.28
2023-03-07T07:18:35.940Z,6.45
2023-03-07T07:22:43.368Z,6.55
2023-03-07T07:26:46.603Z,5.82
2023-03-07T07:30:49.652Z,5.70
2023-03-07T07:34:53.104Z,5.28
2023-03-07T07:38:57.840Z,5.95
2023-03-07T07:43:01.050Z,5.63
2023-03-07T07:47:20.026Z,5.25
2023-03-07T07:51:23.344Z,5.63
2023-03-07T07:55:28.536Z,5.93
2023-03-07T07:59:34.275Z,5.80
2023-03-07T08:03:38.404Z,5.85
2023-03-07T08:07:41.574Z,5.95
2023-03-07T08:11:46.500Z,6.22
2023-03-07T08:15:49.656Z,6.85
2023-03-07T08:19:52.732Z,6.43
2023-03-07T08:23:56.710Z,6.28
2023-03-07T08:28:03.486Z,6.60
2023-03-07T08:32:07.315Z,6.40
2023-03-07T08:36:10.741Z,6.78
2023-03-07T08:40:14.621Z,6.53
2023-03-07T08:44:19.032Z,6.78
2023-03-07T08:48:22.184Z,6.60
2023-03-07T08:52:25.236Z,6.78
2023-03-07T08:56:28.393Z,7.13
2023-03-07T09:00:32.948Z,6.45
2023-03-07T09:04:36.161Z,6.82
2023-03-07T09:08:39.167Z,6.32
2023-03-07T09:12:42.233Z,7.18
2023-03-07T09:16:46.587Z,6.75
2023-03-07T09:20:51.043Z,7.20
2023-03-07T09:24:54.055Z,6.93
2023-03-07T09:28:57.153Z,6.90
2023-03-07T09:33:01.577Z,7.00
2023-03-07T09:37:04.764Z,7.22
2023-03-07T09:41:27.642Z,7.05
2023-03-07T09:45:45.365Z,6.68
2023-03-07T09:49:55.358Z,6.63
2023-03-07T09:54:01.953Z,6.10
2023-03-07T09:58:10.942Z,6.32
2023-03-07T10:02:21.679Z,6.60
2023-03-07T10:06:31.521Z,7.18
2023-03-07T10:10:39.818Z,7.00
2023-03-07T10:14:56.108Z,6.22
2023-03-07T10:19:10.032Z,6.65
2023-03-07T10:23:39.144Z,6.57
2023-03-07T10:27:42.305Z,6.07
2023-03-07T10:31:50.014Z,5.85
2023-03-07T10:35:59.205Z,6.45
2023-03-07T10:40:05.061Z,5.85
2023-03-07T10:44:17.486Z,5.32
2023-03-07T10:48:23.558Z,5.57
2023-03-07T10:52:35.196Z,5.65
2023-03-07T10:56:39.650Z,5.40
2023-03-07T11:00:44.400Z,5.00
2023-03-07T11:04:48.436Z,5.50
2023-03-07T11:08:51.565Z,4.93
2023-03-07T11:12:57.389Z,5.40
2023-03-07T11:17:02.063Z,5.50
2023-03-07T11:21:05.486Z,5.00
2023-03-07T11:25:19.066Z,5.65
2023-03-07T11:29:24.900Z,5.50
2023-03-07T11:33:39.271Z,5.38
2023-03-07T11:37:58.793Z,5.60
2023-03-07T11:42:06.311Z,5.43
2023-03-07T11:46:17.654Z,5.30
2023-03-07T11:50:24.279Z,5.75
2023-03-07T11:54:35.585Z,5.93
2023-03-07T11:58:53.005Z,5.35
2023-03-07T12:03:15.076Z,5.55
2023-03-07T12:07:33.569Z,5.10
2023-03-07T12:11:52.141Z,4.68
2023-03-07T12:16:06.221Z,5.15
2023-03-07T12:20:27.192Z,5.20
2023-03-07T12:24:36.297Z,4.93
2023-03-07T12:28:46.557Z,4.57
2023-03-07T12:32:52.066Z,3.90
2023-03-07T12:37:00.737Z,3.90
2023-03-07T12:41:12.167Z,4.13
2023-03-07T12:45:19.944Z,3.40
2023-03-07T12:49:32.266Z,3.60
2023-03-07T12:53:47.770Z,3.33
2023-03-07T12:57:59.323Z,3.30
2023-03-07T13:02:05.559Z,3.25
2023-03-07T13:06:17.892Z,3.50
2023-03-07T13:10:24.521Z,3.63
2023-03-07T13:14:46.172Z,3.30
2023-03-07T13:18:49.135Z,3.90
2023-03-07T13:23:01.308Z,3.80
2023-03-07T13:27:15.244Z,4.80
2023-03-07T13:31:39.839Z,4.53
2023-03-07T13:35:55.763Z,5.03
2023-03-07T13:40:02.807Z,4.15
2023-03-07T13:44:29.017Z,3.80
2023-03-07T13:49:02.029Z,4.20
2023-03-07T13:53:12.767Z,3.45
2023-03-07T13:57:17.960Z,3.70
2023-03-07T14:01:25.542Z,3.13
2023-03-07T14:05:30.062Z,3.78
2023-03-07T14:09:41.928Z,3.28
2023-03-07T14:14:20.562Z,2.97
2023-03-07T14:18:37.432Z,2.58
2023-03-07T14:22:52.466Z,2.38
2023-03-07T14:26:58.803Z,2.70
2023-03-07T14:31:05.528Z,2.17
2023-03-07T14:35:15.233Z,2.50
2023-03-07T14:39:18.654Z,2.47
2023-03-07T14:43:37.685Z,2.60
2023-03-07T14:48:00.246Z,2.72
2023-03-07T14:52:05.617Z,2.67
2023-03-07T14:56:09.820Z,2.60
2023-03-07T15:00:16.741Z,2.58
2023-03-07T15:04:24.915Z,3.20
2023-03-07T15:08:31.622Z,2.80
2023-03-07T15:12:34.839Z,2.85
2023-03-07T15:16:41.472Z,3.50
2023-03-07T15:20:45.789Z,2.90
2023-03-07T15:24:52.988Z,2.92
2023-03-07T15:29:01.382Z,3.22
2023-03-07T15:33:06.468Z,2.75
2023-03-07T15:37:22.651Z,3.33
2023-03-07T15:41:29.787Z,2.92
2023-03-07T15:45:35.160Z,3.00
2023-03-07T15:49:44.348Z,3.72
2023-03-07T15:53:56.075Z,3.38
2023-03-07T15:58:02.916Z,3.88
2023-03-07T16:02:42.114Z,4.15
2023-03-07T16:06:46.818Z,4.53
2023-03-07T16:10:53.704Z,4.13
2023-03-07T16:15:00.012Z,4.80
2023-03-07T16:19:03.548Z,4.75
2023-03-07T16:23:08.031Z,4.70
2023-03-07T16:27:16.605Z,5.07
2023-03-07T16:31:21.603Z,4.95
2023-03-07T16:35:26.414Z,4.63
2023-03-07T16:39:29.758Z,5.07
2023-03-07T16:43:35.313Z,4.75
2023-03-07T16:47:39.698Z,5.15
2023-03-07T16:51:42.904Z,5.40
2023-03-07T16:55:46.974Z,5.93
2023-03-07T16:59:50.041Z,5.95
2023-03-07T17:03:56.382Z,6.03
2023-03-07T17:08:00.145Z,6.30
2023-03-07T17:12:03.206Z,5.93
2023-03-07T17:16:06.631Z,6.03
2023-03-07T17:20:14.156Z,6.25
2023-03-07T17:24:17.327Z,5.43
2023-03-07T17:28:20.672Z,6.55
2023-03-07T17:32:24.209Z,6.78
2023-03-07T17:36:28.602Z,6.40
2023-03-07T17:40:32.322Z,6.30
2023-03-07T17:44:35.570Z,6.13
2023-03-07T17:48:38.908Z,6.93
2023-03-07T17:52:43.567Z,6.55
2023-03-07T17:56:46.778Z,7.13
2023-03-07T18:00:50.452Z,6.88
2023-03-07T18:04:53.729Z,7.13
2023-03-07T18:08:58.143Z,6.55
2023-03-07T18:13:01.306Z,6.47
2023-03-07T18:17:04.404Z,7.50
2023-03-07T18:21:10.244Z,6.82
2023-03-07T18:25:16.951Z,7.03
2023-03-07T18:29:21.015Z,7.72
2023-03-07T18:33:24.908Z,7.53
2023-03-07T18:37:29.731Z,7.60
2023-03-07T18:41:34.161Z,7.30
2023-03-07T18:45:37.241Z,7.22
2023-03-07T18:49:40.342Z,7.63
2023-03-07T18:53:43.849Z,7.07
2023-03-07T18:57:48.253Z,6.90
2023-03-07T19:01:51.377Z,7.78
2023-03-07T19:05:54.399Z,8.00
2023-03-07T19:09:57.685Z,7.53
2023-03-07T19:14:02.145Z,7.65
2023-03-07T19:18:05.270Z,7.43
2023-03-07T19:22:10.928Z,8.02
2023-03-07T19:26:16.702Z,9.43
2023-03-07T19:30:21.365Z,9.20
2023-03-07T19:34:24.969Z,8.77
2023-03-07T19:38:28.004Z,9.00
2023-03-07T19:42:31.093Z,9.07
2023-03-07T19:46:35.461Z,8.15
2023-03-07T19:50:41.718Z,8.80
2023-03-07T19:54:45.488Z,7.70
2023-03-07T19:58:49.113Z,8.40
2023-03-07T20:02:53.560Z,8.48
2023-03-07T20:06:56.647Z,7.78
2023-03-07T20:11:12.656Z,8.90
2023-03-07T20:15:15.889Z,9.27
2023-03-07T20:19:20.757Z,8.88
2023-03-07T20:23:23.812Z,8.38
2023-03-07T20:27:27.224Z,8.40
2023-03-07T20:31:30.705Z,8.60
2023-03-07T20:35:35.317Z,9.68
2023-03-07T20:39:38.732Z,10.70
2023-03-07T20:43:41.769Z,10.05
2023-03-07T20:47:44.878Z,9.98
2023-03-07T20:51:49.745Z,8.65
2023-03-07T20:55:52.904Z,9.05
2023-03-07T20:59:56.028Z,8.88
2023-03-07T21:04:06.133Z,8.57
2023-03-07T21:08:11.175Z,9.07
2023-03-07T21:12:14.212Z,8.60
2023-03-07T21:16:19.338Z,9.00
2023-03-07T21:20:22.424Z,9.57
2023-03-07T21:24:26.800Z,9.57
2023-03-07T21:28:29.844Z,8.63
2023-03-07T21:32:32.880Z,8.23
2023-03-07T21:36:36.330Z,8.98
2023-03-07T21:40:42.513Z,9.20
2023-03-07T21:44:45.606Z,8.38
2023-03-07T21:48:48.818Z,9.38
2023-03-07T21:52:51.890Z,9.23
2023-03-07T21:56:56.329Z,8.88
2023-03-07T22:00:59.975Z,8.48
2023-03-07T22:05:02.998Z,8.05
2023-03-07T22:09:06.161Z,7.90
2023-03-07T22:13:10.622Z,9.27
2023-03-07T22:17:13.892Z,8.70
2023-03-07T22:21:17.301Z,8.98
2023-03-07T22:25:20.469Z,9.23
2023-03-07T22:29:24.836Z,7.97
2023-03-07T22:33:27.945Z,8.90
2023-03-07T22:37:31.155Z,8.68
2023-03-07T22:41:34.950Z,8.13
2023-03-07T22:45:39.359Z,9.35
2023-03-07T22:49:42.623Z,8.82
2023-03-07T22:53:45.910Z,9.73
2023-03-07T22:57:49.021Z,10.18
2023-03-07T23:01:54.743Z,8.98
2023-03-07T23:06:02.190Z,10.73
2023-03-07T23:10:05.821Z,10.32
2023-03-07T23:14:09.559Z,10.52
2023-03-07T23:18:14.681Z,10.32
2023-03-07T23:22:17.862Z,9.75
2023-03-07T23:26:23.058Z,9.60
2023-03-07T23:30:26.126Z,9.63
2023-03-07T23:34:30.966Z,9.23
2023-03-07T23:38:34.318Z,9.95
2023-03-07T23:42:37.545Z,9.30
2023-03-07T23:46:40.676Z,9.00
2023-03-07T23:50:45.075Z,9.98
2023-03-07T23:54:48.162Z,9.57
2023-03-07T23:58:51.637Z,8.80
